Time;durP1;ratioP1;P1;durP2;ratioP2;P2;SDS_P1;SDS_P2;PMS_P1;PMS_P2;Temp;Humidity;BMP_temperature;BMP_pressure;BME280_temperature;BME280_humidity;BME280_pressure;Samples;Min_cycle;Max_cycle;Signal;HPM_P1;HPM_P2
2021/06/21 00:00:07;;;;;;;5.97;5.07;;;;;;;21.05;65.09;98845.13;4996743;28;20450;-60
2021/06/21 00:02:38;;;;;;;9.25;5.35;;;;;;;21.03;65.37;98861.94;4997396;28;20057;-62
2021/06/21 00:05:14;;;;;;;5.63;4.60;;;;;;;21.01;65.42;98864.66;4980355;28;20509;-62
2021/06/21 00:07:43;;;;;;;8.07;5.15;;;;;;;20.99;65.39;98861.22;4996866;28;20142;-62
2021/06/21 00:10:16;;;;;;;11.07;5.20;;;;;;;20.99;65.25;98851.53;5012782;28;20034;-62
2021/06/21 00:12:50;;;;;;;6.93;4.82;;;;;;;20.99;65.34;98846.25;4979934;28;20056;-62
2021/06/21 00:15:23;;;;;;;6.50;4.07;;;;;;;21.00;65.43;98836.59;4979866;28;20034;-63
2021/06/21 00:17:56;;;;;;;6.43;4.07;;;;;;;21.01;65.36;98834.81;5012675;28;20042;-63
2021/06/21 00:20:26;;;;;;;7.07;4.43;;;;;;;20.99;65.31;98817.28;4996370;28;20061;-62
2021/06/21 00:22:55;;;;;;;7.18;4.28;;;;;;;20.99;65.59;98824.34;4979422;28;20092;-62
2021/06/21 00:25:27;;;;;;;7.10;4.18;;;;;;;21.00;65.46;98826.06;4996534;28;20109;-62
2021/06/21 00:28:02;;;;;;;5.80;4.40;;;;;;;20.99;65.37;98821.72;4979978;28;20046;-63
2021/06/21 00:30:31;;;;;;;7.53;4.80;;;;;;;20.98;65.55;98826.13;4980656;28;20046;-63
2021/06/21 00:32:56;;;;;;;7.10;4.03;;;;;;;20.97;65.72;98824.41;4979532;28;20026;-62
2021/06/21 00:35:24;;;;;;;11.63;4.68;;;;;;;20.97;65.53;98827.03;5012449;28;20042;-62
2021/06/21 00:37:53;;;;;;;7.20;4.68;;;;;;;20.97;65.69;98828.84;4979667;28;20034;-62
2021/06/21 00:40:21;;;;;;;6.90;4.85;;;;;;;20.95;65.84;98834.16;4996074;28;20105;-62
2021/06/21 00:42:51;;;;;;;5.50;4.28;;;;;;;20.95;65.84;98835.94;4980230;28;20034;-62
2021/06/21 00:45:20;;;;;;;6.15;4.45;;;;;;;20.94;65.81;98828.97;4995636;28;20527;-62
2021/06/21 00:47:50;;;;;;;5.75;4.45;;;;;;;20.93;65.76;98830.75;4979559;28;20485;-62
2021/06/21 00:50:22;;;;;;;6.75;4.20;;;;;;;20.93;65.75;98837.78;4995480;28;20038;-62
2021/06/21 00:52:53;;;;;;;6.57;4.82;;;;;;;20.91;65.93;98843.13;4979489;28;20188;-62
2021/06/21 00:55:18;;;;;;;7.13;4.95;;;;;;;20.91;65.87;98842.28;4979710;28;20092;-62
2021/06/21 00:57:49;;;;;;;7.82;4.95;;;;;;;20.90;66.03;98848.47;4996714;28;20042;-62
2021/06/21 01:00:20;;;;;;;5.32;4.80;;;;;;;20.89;65.97;98845.00;4979480;28;20045;-62
2021/06/21 01:02:49;;;;;;;7.10;4.68;;;;;;;20.89;66.06;98836.22;4979156;28;20444;-62
2021/06/21 01:05:18;;;;;;;7.00;5.05;;;;;;;20.87;66.03;98844.19;4978998;28;20128;-61
2021/06/21 01:07:46;;;;;;;6.88;4.53;;;;;;;20.87;66.12;98843.31;4978489;28;20039;-61
2021/06/21 01:10:17;;;;;;;7.72;5.22;;;;;;;20.86;65.99;98839.00;4995218;28;20062;-61
2021/06/21 01:12:46;;;;;;;6.63;5.38;;;;;;;20.85;66.13;98840.78;4995709;28;20042;-61
2021/06/21 01:15:21;;;;;;;6.07;5.47;;;;;;;20.85;66.32;98840.78;4979201;28;20068;-61
2021/06/21 01:18:06;;;;;;;6.25;5.10;;;;;;;20.84;65.91;98828.53;4978704;28;20042;-61
2021/06/21 01:21:01;;;;;;;11.52;5.97;;;;;;;20.81;66.07;98826.91;4996364;28;20042;-63
2021/06/21 01:24:04;;;;;;;11.43;6.03;;;;;;;20.80;66.14;98829.59;4995298;28;20117;-62
2021/06/21 01:26:43;;;;;;;6.97;5.57;;;;;;;20.80;66.13;98821.69;4978419;28;20030;-63
2021/06/21 01:29:42;;;;;;;8.43;5.32;;;;;;;20.79;66.11;98817.34;4979136;28;20049;-62
2021/06/21 01:32:12;;;;;;;9.73;6.32;;;;;;;20.80;66.49;98819.94;4978082;28;20030;-61
2021/06/21 01:34:55;;;;;;;7.70;6.28;;;;;;;20.79;66.29;98820.84;4994664;28;20047;-62
2021/06/21 01:37:27;;;;;;;6.10;5.45;;;;;;;20.79;66.51;98815.59;4994565;28;20034;-62
2021/06/21 01:40:02;;;;;;;11.85;5.85;;;;;;;20.78;66.57;98811.25;4979018;28;20043;-62
2021/06/21 01:42:35;;;;;;;7.07;5.90;;;;;;;20.79;66.52;98809.44;5010626;28;20038;-63
2021/06/21 01:45:07;;;;;;;6.40;5.80;;;;;;;20.79;66.59;98806.81;4978395;28;20042;-63
2021/06/21 01:47:42;;;;;;;8.10;5.45;;;;;;;20.78;66.59;98803.34;4994168;28;20037;-62
2021/06/21 01:50:16;;;;;;;7.47;5.43;;;;;;;20.79;66.58;98804.19;4994979;28;20121;-60
2021/06/21 01:52:52;;;;;;;7.20;6.07;;;;;;;20.78;66.45;98802.50;4995123;28;20038;-62
2021/06/21 01:55:24;;;;;;;8.52;6.35;;;;;;;20.78;66.60;98803.34;4994669;28;20030;-63
2021/06/21 01:57:58;;;;;;;6.35;5.72;;;;;;;20.77;66.47;98796.38;4994425;28;20057;-61
2021/06/21 02:00:33;;;;;;;8.05;6.50;;;;;;;20.77;66.67;98800.78;4994374;28;20085;-61
2021/06/21 02:03:05;;;;;;;9.35;6.43;;;;;;;20.75;66.79;98790.31;4977866;28;20038;-61
2021/06/21 02:05:35;;;;;;;7.82;6.25;;;;;;;20.74;66.83;98791.22;5010560;28;20494;-61
2021/06/21 02:08:06;;;;;;;8.20;6.60;;;;;;;20.74;66.63;98785.94;4977790;28;20038;-63
2021/06/21 02:10:39;;;;;;;9.63;6.07;;;;;;;20.74;66.80;98779.84;4994675;28;20042;-62
2021/06/21 02:13:09;;;;;;;7.78;5.75;;;;;;;20.73;66.98;98765.81;4978358;28;20039;-61
2021/06/21 02:15:38;;;;;;;7.43;6.30;;;;;;;20.73;66.96;98768.44;4977716;28;20441;-61
2021/06/21 02:18:12;;;;;;;7.82;6.28;;;;;;;20.72;66.85;98772.00;4977773;28;20039;-61
2021/06/21 02:20:38;;;;;;;7.88;6.32;;;;;;;20.72;66.94;98761.47;4993870;28;20124;-61
2021/06/21 02:23:08;;;;;;;10.05;6.65;;;;;;;20.73;67.07;98762.34;4977869;28;20617;-62
2021/06/21 02:25:38;;;;;;;6.30;5.53;;;;;;;20.72;67.01;98758.00;4977675;28;20042;-61
2021/06/21 02:28:04;;;;;;;5.28;4.78;;;;;;;20.72;67.01;98761.47;4977456;28;20046;-61
2021/06/21 02:30:36;;;;;;;8.23;5.47;;;;;;;20.73;66.94;98764.97;4993714;28;20485;-61
2021/06/21 02:33:11;;;;;;;6.82;5.45;;;;;;;20.71;66.98;98756.28;4993483;28;20065;-62
2021/06/21 02:35:42;;;;;;;6.90;6.20;;;;;;;20.71;66.86;98756.28;4977966;28;20038;-61
2021/06/21 02:38:14;;;;;;;7.43;6.43;;;;;;;20.69;67.16;98762.47;4994306;28;20042;-61
2021/06/21 02:40:42;;;;;;;7.45;6.25;;;;;;;20.68;67.09;98766.03;4994906;28;20043;-61
2021/06/21 02:43:11;;;;;;;6.93;6.10;;;;;;;20.67;66.99;98758.22;4993532;28;20137;-61
2021/06/21 02:45:43;;;;;;;7.57;5.63;;;;;;;20.66;67.04;98759.97;4977502;28;20512;-61
2021/06/21 02:48:15;;;;;;;9.65;5.32;;;;;;;20.66;67.24;98759.97;4977310;28;20038;-60
2021/06/21 02:50:51;;;;;;;8.30;5.72;;;;;;;20.64;67.16;98759.19;4993867;28;20045;-62
2021/06/21 02:53:29;;;;;;;7.20;5.50;;;;;;;20.64;67.22;98763.59;4993697;28;20065;-62
2021/06/21 02:56:21;;;;;;;7.65;5.53;;;;;;;20.63;67.05;98757.47;4993462;28;20042;-63
2021/06/21 02:58:48;;;;;;;8.07;5.60;;;;;;;20.64;67.22;98769.72;4994202;28;20057;-61
2021/06/21 03:01:19;;;;;;;7.43;5.75;;;;;;;20.63;67.32;98769.78;4993064;28;20038;-60
2021/06/21 03:03:50;;;;;;;6.13;5.53;;;;;;;20.63;66.98;98769.78;4993257;28;20034;-61
2021/06/21 03:06:23;;;;;;;5.57;4.78;;;;;;;20.62;67.14;98768.97;4977496;28;20078;-61
2021/06/21 03:08:52;;;;;;;5.75;4.75;;;;;;;20.63;67.14;98772.44;4992914;28;20450;-61
2021/06/21 03:11:28;;;;;;;5.80;4.50;;;;;;;20.61;67.04;98769.88;4976942;28;20042;-61
2021/06/21 03:14:02;;;;;;;6.07;5.00;;;;;;;20.62;67.20;98773.34;4993044;28;20520;-61
2021/06/21 03:16:30;;;;;;;8.60;5.38;;;;;;;20.61;67.48;98769.88;4993050;28;20038;-61
2021/06/21 03:18:56;;;;;;;5.68;4.78;;;;;;;20.60;67.29;98768.16;4993021;28;20387;-61
2021/06/21 03:21:25;;;;;;;5.32;4.82;;;;;;;20.59;67.13;98771.72;4976773;28;20034;-61
2021/06/21 03:23:52;;;;;;;5.70;5.10;;;;;;;20.60;67.26;98773.44;4976763;28;20512;-61
2021/06/21 03:26:29;;;;;;;6.85;5.38;;;;;;;20.58;67.27;98769.13;4992842;28;20038;-60
2021/06/21 03:28:58;;;;;;;5.25;4.75;;;;;;;20.58;67.53;98764.75;4976820;28;20097;-61
2021/06/21 03:31:27;;;;;;;9.82;5.53;;;;;;;20.57;67.32;98773.56;4976818;28;20062;-61
2021/06/21 03:34:00;;;;;;;7.93;5.97;;;;;;;20.57;67.56;98768.31;4976585;28;20109;-61
2021/06/21 03:36:34;;;;;;;6.32;5.03;;;;;;;20.56;67.42;98770.97;4976486;28;20046;-61
2021/06/21 03:39:08;;;;;;;6.20;4.75;;;;;;;20.57;67.21;98775.31;4993291;28;20137;-61
2021/06/21 03:41:48;;;;;;;6.93;4.45;;;;;;;20.56;67.31;98778.88;4992911;28;20395;-61
2021/06/21 03:44:18;;;;;;;5.40;4.63;;;;;;;20.56;67.51;98779.75;4976568;28;20042;-61
2021/06/21 03:46:47;;;;;;;6.53;4.78;;;;;;;20.55;67.40;98775.41;4994625;28;20077;-61
2021/06/21 03:49:26;;;;;;;5.68;4.95;;;;;;;20.54;67.32;98778.97;4977400;28;20034;-61
2021/06/21 03:51:59;;;;;;;5.18;4.20;;;;;;;20.52;67.44;98775.53;4992935;28;20038;-61
2021/06/21 03:54:28;;;;;;;6.03;4.63;;;;;;;20.51;67.55;98769.44;4992598;28;20478;-61
2021/06/21 03:57:03;;;;;;;5.07;4.57;;;;;;;20.50;67.43;98774.75;4992598;28;20046;-61
2021/06/21 03:59:28;;;;;;;5.72;4.43;;;;;;;20.51;67.54;98773.84;4976651;28;20391;-61
2021/06/21 04:01:59;;;;;;;5.53;4.47;;;;;;;20.50;67.69;98774.75;4976742;28;20042;-61
2021/06/21 04:04:28;;;;;;;5.90;4.18;;;;;;;20.49;67.71;98778.31;4976389;28;20046;-62
2021/06/21 04:06:59;;;;;;;4.50;4.00;;;;;;;20.48;67.52;98782.72;4992517;28;20041;-61
2021/06/21 04:09:25;;;;;;;6.15;3.58;;;;;;;20.46;67.60;98779.31;4992691;28;20039;-61
2021/06/21 04:11:56;;;;;;;5.70;3.85;;;;;;;20.46;67.58;98787.19;4976528;28;20157;-62
2021/06/21 04:14:23;;;;;;;4.03;3.38;;;;;;;20.44;67.68;98796.94;4977113;28;20129;-61
2021/06/21 04:16:52;;;;;;;4.60;3.97;;;;;;;20.45;67.48;98789.91;4976377;28;20185;-61
2021/06/21 04:19:17;;;;;;;5.55;4.20;;;;;;;20.45;67.54;98801.28;4976345;28;20034;-61
2021/06/21 04:21:45;;;;;;;3.50;3.03;;;;;;;20.44;67.60;98794.31;4976636;28;20494;-61
2021/06/21 04:24:15;;;;;;;5.03;3.05;;;;;;;20.43;67.62;98794.38;4976038;28;20102;-62
2021/06/21 04:26:43;;;;;;;3.08;2.67;;;;;;;20.42;67.62;98796.16;4976448;28;20046;-61
2021/06/21 04:29:11;;;;;;;4.80;2.67;;;;;;;20.42;67.85;98800.56;4976071;28;20553;-61
2021/06/21 04:31:37;;;;;;;3.75;2.95;;;;;;;20.42;67.59;98803.19;4976681;28;20046;-61
2021/06/21 04:34:05;;;;;;;2.92;2.45;;;;;;;20.40;67.80;98792.72;4975897;28;20034;-61
2021/06/21 04:36:33;;;;;;;3.58;2.60;;;;;;;20.39;67.79;98791.88;4976111;28;20038;-61
2021/06/21 04:39:04;;;;;;;2.70;2.50;;;;;;;20.39;67.75;98791.03;4976064;28;20042;-63
2021/06/21 04:41:36;;;;;;;2.30;2.10;;;;;;;20.38;67.68;98790.16;4992954;28;20049;-62
2021/06/21 04:44:07;;;;;;;2.97;2.35;;;;;;;20.37;67.61;98793.72;4978718;28;20486;-60
2021/06/21 04:46:35;;;;;;;4.03;1.98;;;;;;;20.36;67.60;98792.00;4979514;28;20034;-61
2021/06/21 04:49:05;;;;;;;2.42;1.88;;;;;;;20.35;67.91;98792.94;4979467;28;20038;-61
2021/06/21 04:51:32;;;;;;;2.25;1.70;;;;;;;20.33;67.73;98797.41;4979908;28;20038;-61
2021/06/21 04:53:58;;;;;;;3.67;2.05;;;;;;;20.33;67.85;98794.78;4979214;28;20497;-61
2021/06/21 04:56:24;;;;;;;3.17;1.60;;;;;;;20.32;67.74;98800.13;4995482;28;20081;-61
2021/06/21 04:58:49;;;;;;;4.45;1.83;;;;;;;20.30;67.84;98796.69;4979152;28;20034;-60
2021/06/21 05:01:15;;;;;;;2.42;1.80;;;;;;;20.29;67.67;98801.13;5011757;28;20402;-61
2021/06/21 05:03:46;;;;;;;2.85;1.80;;;;;;;20.28;67.97;98794.16;5011746;28;20039;-61
2021/06/21 05:06:12;;;;;;;3.08;1.75;;;;;;;20.30;67.77;98799.31;4979613;28;20045;-62
2021/06/21 05:08:41;;;;;;;3.88;1.88;;;;;;;20.26;67.89;98793.34;4995484;28;20415;-62
2021/06/21 05:11:13;;;;;;;4.80;1.88;;;;;;;20.27;67.91;98795.06;4979056;28;20402;-62
2021/06/21 05:13:41;;;;;;;2.33;1.70;;;;;;;20.26;67.93;98792.47;4995154;28;20038;-62
2021/06/21 05:16:10;;;;;;;3.42;1.50;;;;;;;20.24;67.74;98795.19;4978678;28;20387;-62
2021/06/21 05:18:39;;;;;;;2.20;1.58;;;;;;;20.22;67.84;98797.03;4978879;28;20076;-62
2021/06/21 05:21:07;;;;;;;2.03;1.65;;;;;;;20.22;67.99;98799.66;4995482;28;20042;-62
2021/06/21 05:23:38;;;;;;;1.92;1.42;;;;;;;20.20;67.97;98793.59;4978661;28;20091;-60
2021/06/21 05:26:12;;;;;;;1.83;1.58;;;;;;;20.21;67.81;98805.84;4995130;28;20034;-62
2021/06/21 05:28:38;;;;;;;;;;;;;;;20.17;67.86;98807.75;4979270;28;20042;-61
2021/06/21 05:31:09;;;;;;;4.38;1.38;;;;;;;20.18;67.93;98809.47;4994872;28;20357;-62
2021/06/21 05:33:43;;;;;;;2.38;1.45;;;;;;;20.17;68.01;98814.78;4995104;28;20070;-62
2021/06/21 05:36:11;;;;;;;2.38;1.40;;;;;;;20.13;67.92;98821.94;4978487;28;20521;-62
2021/06/21 05:38:40;;;;;;;2.95;1.25;;;;;;;20.12;68.05;98825.50;4978793;28;20046;-62
2021/06/21 05:41:13;;;;;;;2.10;1.40;;;;;;;20.13;68.16;98829.84;4978614;28;20049;-62
2021/06/21 05:43:41;;;;;;;1.90;1.33;;;;;;;20.14;68.01;98835.97;5010594;28;20125;-62
2021/06/21 05:46:09;;;;;;;1.20;1.10;;;;;;;20.13;67.87;98844.78;4978423;28;20041;-62
2021/06/21 05:48:38;;;;;;;2.00;1.20;;;;;;;20.12;68.09;98845.69;4995857;28;20110;-62
2021/06/21 05:51:04;;;;;;;1.38;1.27;;;;;;;20.12;67.84;98850.97;4994407;28;20092;-62
2021/06/21 05:53:33;;;;;;;1.50;1.23;;;;;;;20.12;67.95;98853.59;4978217;28;20042;-62
2021/06/21 05:56:01;;;;;;;3.15;1.40;;;;;;;20.10;68.01;98855.44;4993401;28;20073;-62
2021/06/21 05:58:27;;;;;;;1.30;1.13;;;;;;;20.09;68.15;98867.69;4978871;28;20042;-62
2021/06/21 06:00:53;;;;;;;1.20;1.10;;;;;;;20.06;67.88;98868.69;4994321;28;20233;-62
2021/06/21 06:03:18;;;;;;;1.73;1.35;;;;;;;20.04;67.78;98860.00;4977702;28;20054;-62
2021/06/21 06:05:44;;;;;;;1.55;1.42;;;;;;;20.04;67.83;98857.38;4994261;28;20478;-62
2021/06/21 06:08:09;;;;;;;2.22;1.38;;;;;;;20.03;68.07;98860.94;4994135;28;20093;-62
2021/06/21 06:10:35;;;;;;;2.83;1.33;;;;;;;20.02;67.98;98875.00;4977918;28;20042;-62
2021/06/21 06:13:01;;;;;;;1.27;0.98;;;;;;;19.96;68.16;98879.66;4978045;28;20045;-62
2021/06/21 06:15:27;;;;;;;2.10;1.15;;;;;;;19.98;67.79;98885.72;4978171;28;20423;-62
2021/06/21 06:17:52;;;;;;;1.60;1.23;;;;;;;19.97;67.87;98895.38;4977807;28;20064;-62
2021/06/21 06:20:18;;;;;;;1.55;1.30;;;;;;;19.96;68.03;98896.31;4978099;28;20120;-62
2021/06/21 06:22:44;;;;;;;1.40;1.20;;;;;;;19.96;68.05;98895.44;4993935;28;20125;-62
2021/06/21 06:25:11;;;;;;;1.52;1.42;;;;;;;19.95;68.10;98894.59;4977516;28;20034;-63
2021/06/21 06:27:40;;;;;;;2.00;1.20;;;;;;;19.95;68.08;98904.22;4977537;28;20082;-62
2021/06/21 06:30:07;;;;;;;2.65;1.40;;;;;;;19.94;68.00;98911.28;4994566;28;20046;-62
2021/06/21 06:32:36;;;;;;;3.10;1.42;;;;;;;19.93;67.85;98920.09;4978239;28;20195;-62
2021/06/21 06:35:03;;;;;;;1.48;1.33;;;;;;;19.93;67.92;98925.34;4993974;28;20490;-61
2021/06/21 06:37:28;;;;;;;1.75;1.10;;;;;;;19.92;67.89;98928.88;4977535;28;20038;-62
2021/06/21 06:39:55;;;;;;;1.35;1.20;;;;;;;19.91;67.97;98929.81;4993508;28;20041;-62
2021/06/21 06:42:21;;;;;;;1.42;1.20;;;;;;;19.91;67.91;98937.69;4977867;28;20034;-62
2021/06/21 06:44:49;;;;;;;1.30;1.20;;;;;;;19.90;68.03;98942.09;4993400;28;20073;-62
2021/06/21 06:47:18;;;;;;;2.15;1.52;;;;;;;19.90;68.00;98941.22;4977985;28;20120;-62
2021/06/21 06:49:44;;;;;;;1.45;1.30;;;;;;;19.88;67.86;98943.06;5009794;28;20069;-62
2021/06/21 06:52:12;;;;;;;2.30;1.38;;;;;;;19.86;68.08;98950.13;4977139;28;20494;-62
2021/06/21 06:57:22;;;;;;;1.67;1.10;;;;;;;19.82;68.00;98959.91;4993601;28;20077;-61
2021/06/21 06:59:47;;;;;;;1.48;1.20;;;;;;;19.78;68.06;98977.59;4977067;28;20035;-62
2021/06/21 07:02:22;;;;;;;1.38;1.20;;;;;;;19.76;67.93;98978.56;4977316;28;20050;-61
2021/06/21 07:04:49;;;;;;;1.25;1.15;;;;;;;19.75;67.91;98990.00;4992740;28;20042;-61
2021/06/21 07:07:19;;;;;;;2.00;1.17;;;;;;;19.74;67.82;98981.25;4976671;28;20046;-61
2021/06/21 07:09:47;;;;;;;2.00;1.58;;;;;;;19.74;68.09;98973.34;4976715;28;20034;-61
2021/06/21 07:12:12;;;;;;;4.85;1.80;;;;;;;19.74;68.15;98954.13;4993030;28;20458;-61
2021/06/21 07:14:38;;;;;;;1.90;1.30;;;;;;;19.74;67.94;98930.47;4993187;28;20035;-61
2021/06/21 07:17:04;;;;;;;2.22;1.35;;;;;;;19.71;68.07;98931.41;4976933;28;20038;-61
2021/06/21 07:19:30;;;;;;;2.47;1.50;;;;;;;19.70;68.02;98963.03;4976824;28;20066;-61
2021/06/21 07:21:56;;;;;;;1.50;1.40;;;;;;;19.68;67.94;98986.75;4976764;28;20046;-61
2021/06/21 07:24:22;;;;;;;2.38;1.58;;;;;;;19.67;68.01;98994.69;4977219;28;20111;-61
2021/06/21 07:26:49;;;;;;;3.20;1.35;;;;;;;19.66;68.17;99006.09;4976638;28;20046;-61
2021/06/21 07:29:15;;;;;;;1.50;1.40;;;;;;;19.65;68.24;99005.25;4976618;28;20093;-61
2021/06/21 07:31:43;;;;;;;1.60;1.50;;;;;;;19.62;68.02;99008.84;4976675;28;20034;-61
2021/06/21 07:34:09;;;;;;;1.52;1.30;;;;;;;19.64;68.13;99014.06;4976461;28;20446;-63
2021/06/21 07:36:34;;;;;;;1.98;1.40;;;;;;;19.63;68.04;99012.34;4976617;28;20133;-61
2021/06/21 07:39:03;;;;;;;2.42;1.40;;;;;;;19.62;67.88;99019.34;4977241;28;20038;-61
2021/06/21 07:41:28;;;;;;;1.40;1.30;;;;;;;19.63;67.86;99020.22;4976881;28;20548;-61
2021/06/21 07:43:54;;;;;;;1.20;1.10;;;;;;;19.60;67.95;99021.22;4976493;28;20038;-61
2021/06/21 07:46:20;;;;;;;1.83;1.40;;;;;;;19.60;68.04;99022.97;4976845;28;20042;-61
2021/06/21 07:48:46;;;;;;;1.60;1.50;;;;;;;19.61;67.96;99012.41;4976341;28;20035;-61
2021/06/21 07:51:14;;;;;;;1.63;1.50;;;;;;;19.62;68.12;99023.75;4976461;28;20040;-61
2021/06/21 07:53:41;;;;;;;2.25;1.83;;;;;;;19.60;68.04;99033.47;4976405;28;20168;-61
2021/06/21 07:56:08;;;;;;;2.05;1.58;;;;;;;19.59;68.04;99039.63;4976492;28;20038;-61
2021/06/21 07:58:38;;;;;;;1.60;1.50;;;;;;;19.58;67.92;99027.41;4976489;28;20074;-61
2021/06/21 08:01:05;;;;;;;1.50;1.40;;;;;;;19.55;67.92;99015.25;4976613;28;20410;-63
2021/06/21 08:03:32;;;;;;;1.63;1.48;;;;;;;19.58;67.91;99016.91;4976287;28;20054;-62
2021/06/21 08:06:01;;;;;;;1.38;1.27;;;;;;;19.57;68.00;99023.06;4976734;28;20054;-62
2021/06/21 08:08:27;;;;;;;1.63;1.40;;;;;;;19.58;67.97;99027.41;4976851;28;20034;-62
2021/06/21 08:10:53;;;;;;;1.90;1.50;;;;;;;19.56;68.11;99023.97;4976692;28;20477;-62
2021/06/21 08:13:19;;;;;;;1.60;1.50;;;;;;;19.58;67.95;99030.03;4976223;28;20038;-62
2021/06/21 08:15:44;;;;;;;1.30;1.20;;;;;;;19.57;68.04;99023.94;4976495;28;20053;-62
2021/06/21 08:18:10;;;;;;;1.30;1.20;;;;;;;19.58;67.94;99030.91;4977228;28;20041;-63
2021/06/21 08:20:39;;;;;;;2.58;1.42;;;;;;;19.56;68.19;99027.47;4980231;28;20108;-60
2021/06/21 08:23:05;;;;;;;1.70;1.60;;;;;;;19.54;68.20;99023.22;4996567;28;20490;-60
2021/06/21 08:25:31;;;;;;;1.52;1.40;;;;;;;19.54;68.00;99024.06;4979993;28;20085;-60
2021/06/21 08:27:56;;;;;;;1.50;1.38;;;;;;;19.54;68.09;99024.06;4979852;28;20046;-62
2021/06/21 08:30:22;;;;;;;1.60;1.50;;;;;;;19.54;68.16;99018.78;4979314;28;20073;-61
2021/06/21 08:32:48;;;;;;;2.22;1.65;;;;;;;19.55;68.33;99017.00;4979468;28;20038;-62
2021/06/21 08:35:14;;;;;;;1.40;1.30;;;;;;;19.57;67.99;99017.81;4980014;28;20037;-62
2021/06/21 08:37:39;;;;;;;1.40;1.30;;;;;;;19.57;67.97;99021.31;4979702;28;20038;-62
2021/06/21 08:40:07;;;;;;;1.27;1.17;;;;;;;19.57;68.05;99025.69;4980061;28;20038;-62
2021/06/21 08:42:35;;;;;;;1.48;1.10;;;;;;;19.57;68.20;99034.44;4979678;28;20161;-62
2021/06/21 08:45:03;;;;;;;1.52;1.23;;;;;;;19.59;67.96;99039.63;4979644;28;20030;-62
2021/06/21 08:47:29;;;;;;;1.15;1.05;;;;;;;19.58;68.23;99038.78;4979245;28;20096;-63
2021/06/21 08:50:00;;;;;;;1.23;1.13;;;;;;;19.59;68.38;99044.91;4979751;28;20114;-62
2021/06/21 08:52:26;;;;;;;1.45;1.15;;;;;;;19.60;68.22;99049.25;4995622;28;20031;-62
2021/06/21 08:55:02;;;;;;;1.60;1.33;;;;;;;19.57;68.09;99058.09;4995634;28;20046;-62
2021/06/21 08:57:28;;;;;;;2.97;1.40;;;;;;;19.59;68.14;99064.16;4995367;28;20035;-62
2021/06/21 08:59:57;;;;;;;1.48;1.30;;;;;;;19.60;68.07;99065.88;4979076;28;20046;-62
2021/06/21 09:02:25;;;;;;;1.60;1.40;;;;;;;19.61;68.09;99075.47;4995564;28;20054;-61
2021/06/21 09:04:52;;;;;;;2.33;1.52;;;;;;;19.60;68.29;99076.38;4979244;28;20106;-61
2021/06/21 09:07:22;;;;;;;2.83;1.90;;;;;;;19.61;68.31;99083.38;4979110;28;20103;-61
2021/06/21 09:09:50;;;;;;;1.52;1.38;;;;;;;19.62;68.26;99085.06;4995318;28;20045;-61
2021/06/21 09:12:30;;;;;;;2.17;1.73;;;;;;;19.60;68.20;99086.91;4979051;28;20038;-61
2021/06/21 09:14:57;;;;;;;1.98;1.75;;;;;;;19.59;68.15;99094.81;4995798;28;20057;-61
2021/06/21 09:17:26;;;;;;;2.22;2.03;;;;;;;19.58;68.11;99109.75;4979029;28;20030;-61
2021/06/21 09:19:56;;;;;;;2.33;2.13;;;;;;;19.58;68.24;99116.75;4995013;28;20375;-61
2021/06/21 09:22:31;;;;;;;6.80;2.65;;;;;;;19.55;67.98;99123.00;4995343;28;20066;-61
2021/06/21 09:25:09;;;;;;;3.78;2.63;;;;;;;19.50;68.04;99127.53;4978948;28;20555;-61
2021/06/21 09:27:39;;;;;;;3.30;2.95;;;;;;;19.52;68.29;99133.59;4979298;28;20042;-61
2021/06/21 09:30:08;;;;;;;4.78;3.08;;;;;;;19.53;68.09;99137.09;4978908;28;20045;-63
2021/06/21 09:32:41;;;;;;;4.28;3.67;;;;;;;19.51;68.13;99139.78;4978584;28;20038;-61
2021/06/21 09:35:32;;;;;;;3.20;2.90;;;;;;;19.50;68.06;99135.44;4978182;28;20037;-61
2021/06/21 09:37:59;;;;;;;3.88;3.58;;;;;;;19.52;68.22;99141.50;4978326;28;20042;-60
2021/06/21 09:40:32;;;;;;;6.80;3.42;;;;;;;19.48;68.12;99151.25;4979198;28;20402;-61
2021/06/21 09:43:17;;;;;;;3.42;3.13;;;;;;;19.49;67.99;99152.09;4978446;28;20069;-63
2021/06/21 09:46:13;;;;;;;3.00;2.70;;;;;;;19.47;67.86;99162.69;4994422;28;20438;-62
2021/06/21 09:48:53;;;;;;;2.78;2.58;;;;;;;19.47;67.91;99167.94;4978866;28;20054;-62
2021/06/21 09:51:35;;;;;;;2.60;2.40;;;;;;;19.46;68.25;99163.59;5010585;28;20523;-62
2021/06/21 09:54:10;;;;;;;2.63;2.40;;;;;;;19.45;67.92;99172.38;4978073;28;20133;-62
2021/06/21 09:56:40;;;;;;;2.00;1.80;;;;;;;19.43;68.04;99178.59;4994234;28;20129;-62
2021/06/21 09:59:26;;;;;;;2.80;2.60;;;;;;;19.41;67.92;99181.25;4994500;28;20137;-63
2021/06/21 10:02:01;;;;;;;2.78;2.58;;;;;;;19.40;67.74;99186.59;4978340;28;20054;-62
2021/06/21 10:04:30;;;;;;;3.90;2.70;;;;;;;19.39;68.05;99190.97;4995856;28;20061;-62
2021/06/21 10:07:02;;;;;;;2.70;2.50;;;;;;;19.39;68.09;99198.84;4978336;28;20082;-63
2021/06/21 10:09:28;;;;;;;4.07;2.65;;;;;;;19.39;67.93;99201.47;4977896;28;20040;-62
2021/06/21 10:11:59;;;;;;;5.95;2.75;;;;;;;19.37;68.09;99200.69;4978276;28;20042;-62
2021/06/21 10:14:28;;;;;;;3.03;2.72;;;;;;;19.37;67.97;99208.56;4993884;28;20519;-62
2021/06/21 10:16:57;;;;;;;3.45;3.15;;;;;;;19.35;68.11;99222.66;4995662;28;20130;-62
2021/06/21 10:19:28;;;;;;;3.25;2.95;;;;;;;19.36;67.81;99224.38;4977784;28;20030;-63
2021/06/21 10:21:59;;;;;;;3.10;2.83;;;;;;;19.35;68.05;99228.78;4994223;28;20561;-62
2021/06/21 10:24:31;;;;;;;3.70;3.40;;;;;;;19.35;67.90;99230.53;4994003;28;20099;-62
2021/06/21 10:27:05;;;;;;;3.47;3.15;;;;;;;19.36;68.04;99240.13;4993795;28;20474;-62
2021/06/21 10:29:33;;;;;;;3.60;3.30;;;;;;;19.36;67.96;99246.25;4994057;28;20030;-62
2021/06/21 10:32:03;;;;;;;3.15;2.85;;;;;;;19.37;68.24;99249.72;5010452;28;20047;-62
2021/06/21 10:34:32;;;;;;;2.90;2.70;;;;;;;19.37;68.17;99247.09;4994499;28;20042;-62
2021/06/21 10:37:11;;;;;;;4.88;3.10;;;;;;;19.35;68.00;99241.91;4994254;28;20089;-62
2021/06/21 10:39:36;;;;;;;2.67;2.47;;;;;;;19.33;67.76;99255.09;4993955;28;20031;-62
2021/06/21 10:42:05;;;;;;;3.00;2.70;;;;;;;19.30;68.18;99262.22;4992884;28;20034;-62
2021/06/21 10:44:46;;;;;;;3.85;3.13;;;;;;;19.33;68.15;99267.38;4993404;28;20030;-63
2021/06/21 10:48:15;;;;;;;3.25;2.92;;;;;;;19.30;67.87;99267.47;4978044;28;20056;-62
2021/06/21 10:50:52;;;;;;;3.22;2.85;;;;;;;19.30;67.88;99267.47;4956580;28;20030;-62
2021/06/21 10:53:18;;;;;;;3.00;2.65;;;;;;;19.30;67.82;99270.97;4956831;28;20042;-61
2021/06/21 10:55:50;;;;;;;5.65;2.97;;;;;;;19.31;67.93;99269.19;4987873;28;20137;-61
2021/06/21 10:58:15;;;;;;;3.20;2.90;;;;;;;19.32;68.09;99268.28;4993494;28;20041;-60
2021/06/21 11:00:43;;;;;;;3.45;3.15;;;;;;;19.32;67.86;99278.78;4993236;28;20394;-62
2021/06/21 11:03:31;;;;;;;2.72;2.53;;;;;;;19.29;67.89;99281.50;5009485;28;20050;-62
2021/06/21 11:05:58;;;;;;;3.03;2.60;;;;;;;19.30;68.00;99285.84;4993650;28;20557;-63
2021/06/21 11:08:28;;;;;;;4.45;3.88;;;;;;;19.28;68.16;99296.41;4993303;28;20038;-63
2021/06/21 11:11:00;;;;;;;4.43;4.03;;;;;;;19.28;68.19;99295.53;4993282;28;20132;-61
2021/06/21 11:13:35;;;;;;;5.18;4.78;;;;;;;19.26;68.07;99306.13;4993458;28;20061;-61
2021/06/21 11:16:16;;;;;;;4.45;4.05;;;;;;;19.28;68.13;99298.16;4993047;28;20046;-60
2021/06/21 11:18:48;;;;;;;4.75;4.35;;;;;;;19.28;68.05;99288.53;4977107;28;20038;-63
2021/06/21 11:21:15;;;;;;;5.93;5.32;;;;;;;19.30;68.22;99297.25;4976795;28;20049;-62
2021/06/21 11:23:51;;;;;;;6.70;6.10;;;;;;;19.30;67.99;99302.50;4993825;28;20042;-62
2021/06/21 11:26:43;;;;;;;8.50;7.70;;;;;;;19.30;68.02;99296.38;4993282;28;20084;-62
2021/06/21 11:29:30;;;;;;;11.23;10.23;;;;;;;19.29;67.95;99297.25;4977194;28;20133;-62
2021/06/21 11:32:04;;;;;;;10.20;9.25;;;;;;;19.31;68.00;99305.97;5009264;28;20289;-62
2021/06/21 11:34:54;;;;;;;10.52;9.52;;;;;;;19.30;67.99;99302.50;4993996;28;20497;-61
2021/06/21 11:37:48;;;;;;;8.45;7.65;;;;;;;19.34;68.09;99300.63;4993842;28;20481;-63
2021/06/21 11:40:18;;;;;;;8.20;7.40;;;;;;;19.34;68.04;99305.88;5009333;28;20034;-63
2021/06/21 11:43:05;;;;;;;8.15;7.35;;;;;;;19.36;68.04;99309.31;4976887;28;20510;-62
2021/06/21 11:46:02;;;;;;;9.73;7.50;;;;;;;19.38;67.97;99311.88;4994254;28;20145;-61
2021/06/21 11:48:37;;;;;;;7.60;6.90;;;;;;;19.36;68.26;99317.19;4982268;28;20053;-61
2021/06/21 11:51:14;;;;;;;8.10;6.97;;;;;;;19.34;68.17;99316.38;4993223;28;20038;-63
2021/06/21 11:53:45;;;;;;;7.82;7.03;;;;;;;19.35;68.00;99318.09;4996183;28;20041;-63